Time;durP1;ratioP1;P1;durP2;ratioP2;P2;SDS_P1;SDS_P2;PMS_P1;PMS_P2;Temp;Humidity;BMP_temperature;BMP_pressure;BME280_temperature;BME280_humidity;BME280_pressure;Samples;Min_cycle;Max_cycle;Signal;HPM_P1;HPM_P2
2021/03/12 00:02:21;;;;;;;;;;;;;;;;;;5008425;28;910;-60
2021/03/12 00:04:47;;;;;;;;;;;;;;;;;;5008236;28;855;-60
2021/03/12 00:07:12;;;;;;;;;;;;;;;;;;5009068;28;910;-60
2021/03/12 00:09:38;;;;;;;;;;;;;;;;;;5007026;28;1961;-60
2021/03/12 00:12:03;;;;;;;;;;;;;;;;;;5007709;28;918;-60
2021/03/12 00:14:29;;;;;;;;;;;;;;;;;;5007451;28;728;-60
2021/03/12 00:16:55;;;;;;;;;;;;;;;;;;5010144;28;890;-60
2021/03/12 00:19:20;;;;;;;;;;;;;;;;;;5007868;28;823;-60
2021/03/12 00:21:45;;;;;;;;;;;;;;;;;;5007777;28;891;-60
2021/03/12 00:24:11;;;;;;;;;;;;;;;;;;5008782;28;831;-60
2021/03/12 00:26:36;;;;;;;;;;;;;;;;;;5008086;28;891;-60
2021/03/12 00:29:02;;;;;;;;;;;;;;;;;;5007223;28;2005;-60
2021/03/12 00:31:27;;;;;;;;;;;;;;;;;;5007059;28;939;-60
2021/03/12 00:33:52;;;;;;;;;;;;;;;;;;5007674;28;907;-60
2021/03/12 00:36:18;;;;;;;;;;;;;;;;;;5007548;28;820;-60
2021/03/12 00:38:43;;;;;;;;;;;;;;;;;;5008527;28;804;-60
2021/03/12 00:41:09;;;;;;;;;;;;;;;;;;5007490;28;812;-60
2021/03/12 00:43:35;;;;;;;;;;;;;;;;;;5006836;28;808;-59
2021/03/12 00:46:05;;;;;;;;;;;;;;;;;;5006983;28;832;-59
2021/03/12 00:48:31;;;;;;;;;;;;;;;;;;5007555;28;1918;-60
2021/03/12 00:50:57;;;;;;;;;;;;;;;;;;5007844;28;835;-60
2021/03/12 00:53:22;;;;;;;;;;;;;;;;;;5013380;28;1162;-60
2021/03/12 00:55:48;;;;;;;;;;;;;;;;;;5026622;28;835;-60
2021/03/12 00:58:13;;;;;;;;;;;;;;;;;;5027925;28;807;-60
2021/03/12 01:00:39;;;;;;;;;;;;;;;;;;5027225;28;974;-60
2021/03/12 01:03:05;;;;;;;;;;;;;;;;;;5026534;28;898;-60
2021/03/12 01:05:31;;;;;;;;;;;;;;;;;;5026584;28;843;-60
2021/03/12 01:07:57;;;;;;;;;;;;;;;;;;5026979;28;815;-60
2021/03/12 01:10:23;;;;;;;;;;;;;;;;;;5026949;28;1898;-60
2021/03/12 01:12:49;;;;;;;;;;;;;;;;;;5026291;28;838;-60
2021/03/12 01:15:16;;;;;;;;;;;;;;;;;;5025950;28;774;-60
2021/03/12 01:17:41;;;;;;;;;;;;;;;;;;5011320;28;1275;-60
2021/03/12 01:20:09;;;;;;;;;;;;;;;;;;4994458;28;1155;-60
2021/03/12 01:22:35;;;;;;;;;;;;;;;;;;4986930;28;855;-60
2021/03/12 01:25:00;;;;;;;;;;;;;;;;;;4986554;28;824;-60
2021/03/12 01:27:26;;;;;;;;;;;;;;;;;;4987263;28;852;-60
2021/03/12 01:29:53;;;;;;;;;;;;;;;;;;4987005;28;1985;-60
2021/03/12 01:32:18;;;;;;;;;;;;;;;;;;4987263;28;907;-60
2021/03/12 01:34:43;;;;;;;;;;;;;;;;;;4987915;28;907;-60
2021/03/12 01:37:09;;;;;;;;;;;;;;;;;;4986693;28;804;-60
2021/03/12 01:39:34;;;;;;;;;;;;;;;;;;4989008;28;1079;-60
2021/03/12 01:41:59;;;;;;;;;;;;;;;;;;5008541;28;1244;-60
2021/03/12 01:44:25;;;;;;;;;;;;;;;;;;5002870;28;1459;-60
2021/03/12 01:46:50;;;;;;;;;;;;;;;;;;4989631;28;954;-60
2021/03/12 01:49:16;;;;;;;;;;;;;;;;;;5006819;28;1886;-60
2021/03/12 01:51:41;;;;;;;;;;;;;;;;;;5006997;28;898;-60
2021/03/12 01:54:06;;;;;;;;;;;;;;;;;;5018565;28;1021;-60
2021/03/12 01:56:32;;;;;;;;;;;;;;;;;;5026119;28;819;-60
2021/03/12 01:58:57;;;;;;;;;;;;;;;;;;5025844;28;961;-60
2021/03/12 02:01:22;;;;;;;;;;;;;;;;;;5026474;28;985;-60
2021/03/12 02:03:48;;;;;;;;;;;;;;;;;;5026058;28;800;-60
2021/03/12 02:06:13;;;;;;;;;;;;;;;;;;5027250;28;884;-60
2021/03/12 02:08:39;;;;;;;;;;;;;;;;;;5026263;28;2011;-59
2021/03/12 02:11:04;;;;;;;;;;;;;;;;;;5008302;28;1506;-60
2021/03/12 02:13:33;;;;;;;;;;;;;;;;;;5006001;28;808;-60
2021/03/12 02:16:17;;;;;;;;;;;;;;;;;;5005002;28;871;-60
2021/03/12 02:18:52;;;;;;;;;;;;;;;;;;5009020;28;883;-59
2021/03/12 02:21:28;;;;;;;;;;;;;;;;;;5006195;28;823;-60
2021/03/12 02:23:59;;;;;;;;;;;;;;;;;;5005607;28;885;-60
2021/03/12 02:26:30;;;;;;;;;;;;;;;;;;5005990;28;823;-60
2021/03/12 02:28:58;;;;;;;;;;;;;;;;;;5006255;28;1898;-60
2021/03/12 02:31:24;;;;;;;;;;;;;;;;;;5006763;28;899;-60
2021/03/12 02:33:49;;;;;;;;;;;;;;;;;;5010077;28;902;-60
2021/03/12 02:36:16;;;;;;;;;;;;;;;;;;5010290;28;1770;-60
2021/03/12 02:38:42;;;;;;;;;;;;;;;;;;5008982;28;1487;-60
2021/03/12 02:41:07;;;;;;;;;;;;;;;;;;4996834;28;1152;-60
2021/03/12 02:43:35;;;;;;;;;;;;;;;;;;4989030;28;875;-60
2021/03/12 02:46:01;;;;;;;;;;;;;;;;;;4989022;28;935;-60
2021/03/12 02:48:27;;;;;;;;;;;;;;;;;;4989563;28;1962;-60
2021/03/12 02:50:53;;;;;;;;;;;;;;;;;;4990003;28;868;-60
2021/03/12 02:53:18;;;;;;;;;;;;;;;;;;5001545;28;1025;-60
2021/03/12 02:55:45;;;;;;;;;;;;;;;;;;5030023;28;804;-60
2021/03/12 02:58:12;;;;;;;;;;;;;;;;;;5028431;28;871;-60
2021/03/12 03:00:38;;;;;;;;;;;;;;;;;;5029054;28;918;-59
2021/03/12 03:03:05;;;;;;;;;;;;;;;;;;5029384;28;835;-60
2021/03/12 03:05:31;;;;;;;;;;;;;;;;;;5029157;28;965;-60
2021/03/12 03:07:57;;;;;;;;;;;;;;;;;;5021208;28;2644;-60
2021/03/12 03:10:24;;;;;;;;;;;;;;;;;;5009565;28;1902;-60
2021/03/12 03:12:50;;;;;;;;;;;;;;;;;;5024832;28;895;-60
2021/03/12 03:15:16;;;;;;;;;;;;;;;;;;5009005;28;903;-60
2021/03/12 03:17:42;;;;;;;;;;;;;;;;;;5008400;28;1491;-59
2021/03/12 03:20:10;;;;;;;;;;;;;;;;;;5004409;28;1115;-60
2021/03/12 03:22:36;;;;;;;;;;;;;;;;;;5004841;28;1118;-59
2021/03/12 03:25:02;;;;;;;;;;;;;;;;;;5009196;28;820;-59
2021/03/12 03:27:29;;;;;;;;;;;;;;;;;;5010647;28;1080;-60
2021/03/12 03:29:54;;;;;;;;;;;;;;;;;;5008795;28;1977;-60
2021/03/12 03:32:19;;;;;;;;;;;;;;;;;;5011240;28;1115;-60
2021/03/12 03:34:45;;;;;;;;;;;;;;;;;;5009429;28;839;-60
2021/03/12 03:37:11;;;;;;;;;;;;;;;;;;5009410;28;859;-59
2021/03/12 03:39:38;;;;;;;;;;;;;;;;;;5009061;28;898;-59
2021/03/12 03:42:04;;;;;;;;;;;;;;;;;;5008641;28;871;-60
2021/03/12 03:44:30;;;;;;;;;;;;;;;;;;5009136;28;816;-60
2021/03/12 03:46:57;;;;;;;;;;;;;;;;;;5008882;28;883;-59
2021/03/12 03:49:22;;;;;;;;;;;;;;;;;;5007826;28;1898;-59
2021/03/12 03:51:48;;;;;;;;;;;;;;;;;;5008473;28;819;-60
2021/03/12 03:54:15;;;;;;;;;;;;;;;;;;5022213;28;1154;-60
2021/03/12 03:56:42;;;;;;;;;;;;;;;;;;5028870;28;824;-60
2021/03/12 03:59:07;;;;;;;;;;;;;;;;;;5028610;28;827;-60
2021/03/12 04:01:34;;;;;;;;;;;;;;;;;;5008654;28;1045;-60
2021/03/12 04:03:59;;;;;;;;;;;;;;;;;;5007743;28;811;-60
2021/03/12 04:06:28;;;;;;;;;;;;;;;;;;5007942;28;828;-60
2021/03/12 04:08:54;;;;;;;;;;;;;;;;;;5008149;28;1902;-60
2021/03/12 04:11:20;;;;;;;;;;;;;;;;;;5007756;28;851;-60
2021/03/12 04:13:46;;;;;;;;;;;;;;;;;;5007855;28;832;-60
2021/03/12 04:16:11;;;;;;;;;;;;;;;;;;5008815;28;804;-59
2021/03/12 04:18:37;;;;;;;;;;;;;;;;;;5008397;28;836;-60
2021/03/12 04:21:03;;;;;;;;;;;;;;;;;;5010538;28;816;-60
2021/03/12 04:23:29;;;;;;;;;;;;;;;;;;5006239;28;876;-60
2021/03/12 04:25:54;;;;;;;;;;;;;;;;;;5007201;28;858;-60
2021/03/12 04:28:20;;;;;;;;;;;;;;;;;;5007198;28;1886;-61
2021/03/12 04:30:46;;;;;;;;;;;;;;;;;;5007375;28;943;-61
2021/03/12 04:33:12;;;;;;;;;;;;;;;;;;5008464;28;1098;-60
2021/03/12 04:35:37;;;;;;;;;;;;;;;;;;5008111;28;844;-60
2021/03/12 04:38:03;;;;;;;;;;;;;;;;;;5007336;28;903;-60
2021/03/12 04:40:29;;;;;;;;;;;;;;;;;;5006446;28;883;-60
2021/03/12 04:42:55;;;;;;;;;;;;;;;;;;5007474;28;871;-61
2021/03/12 04:45:21;;;;;;;;;;;;;;;;;;5007411;28;895;-61
2021/03/12 04:47:47;;;;;;;;;;;;;;;;;;5007085;28;882;-61
2021/03/12 04:50:14;;;;;;;;;;;;;;;;;;5007630;28;1910;-60
2021/03/12 04:52:39;;;;;;;;;;;;;;;;;;5007919;28;1096;-61
2021/03/12 04:55:06;;;;;;;;;;;;;;;;;;5026164;28;918;-60
2021/03/12 04:57:31;;;;;;;;;;;;;;;;;;5027133;28;843;-60
2021/03/12 04:59:57;;;;;;;;;;;;;;;;;;5027115;28;934;-60
2021/03/12 05:02:24;;;;;;;;;;;;;;;;;;5026736;28;854;-60
2021/03/12 05:04:50;;;;;;;;;;;;;;;;;;5026205;28;843;-61
2021/03/12 05:07:18;;;;;;;;;;;;;;;;;;5026806;28;1200;-61
2021/03/12 05:09:44;;;;;;;;;;;;;;;;;;5027154;28;1976;-60
2021/03/12 05:12:09;;;;;;;;;;;;;;;;;;5026814;28;843;-60
2021/03/12 05:14:34;;;;;;;;;;;;;;;;;;5026900;28;839;-61
2021/03/12 05:17:00;;;;;;;;;;;;;;;;;;5026711;28;887;-60
2021/03/12 05:19:25;;;;;;;;;;;;;;;;;;5026478;28;911;-61
2021/03/12 05:21:50;;;;;;;;;;;;;;;;;;5029248;28;851;-61
2021/03/12 05:24:16;;;;;;;;;;;;;;;;;;5026109;28;878;-62
2021/03/12 05:26:41;;;;;;;;;;;;;;;;;;5021797;28;1730;-61
2021/03/12 05:29:07;;;;;;;;;;;;;;;;;;5005751;28;1898;-61
2021/03/12 05:31:32;;;;;;;;;;;;;;;;;;5006701;28;683;-61
2021/03/12 05:33:57;;;;;;;;;;;;;;;;;;5006184;28;808;-61
2021/03/12 05:36:23;;;;;;;;;;;;;;;;;;5007219;28;867;-61
2021/03/12 05:38:48;;;;;;;;;;;;;;;;;;5006316;28;848;-62
2021/03/12 05:41:15;;;;;;;;;;;;;;;;;;5007465;28;819;-61
2021/03/12 05:43:44;;;;;;;;;;;;;;;;;;5008056;28;1016;-59
2021/03/12 05:46:13;;;;;;;;;;;;;;;;;;5006300;28;831;-61
2021/03/12 05:48:39;;;;;;;;;;;;;;;;;;5006463;28;1898;-61
2021/03/12 05:51:04;;;;;;;;;;;;;;;;;;5006542;28;852;-61
2021/03/12 05:53:30;;;;;;;;;;;;;;;;;;5013896;28;1080;-61
2021/03/12 05:55:56;;;;;;;;;;;;;;;;;;5025403;28;1042;-61
2021/03/12 05:58:22;;;;;;;;;;;;;;;;;;5025827;28;879;-61
2021/03/12 06:00:47;;;;;;;;;;;;;;;;;;5019949;28;1167;-61
2021/03/12 06:03:14;;;;;;;;;;;;;;;;;;5006888;28;875;-61
2021/03/12 06:05:39;;;;;;;;;;;;;;;;;;5005554;28;827;-61
2021/03/12 06:08:05;;;;;;;;;;;;;;;;;;5008772;28;994;-61
2021/03/12 06:10:30;;;;;;;;;;;;;;;;;;5009948;28;1911;-61
2021/03/12 06:12:56;;;;;;;;;;;;;;;;;;5009735;28;839;-61
2021/03/12 06:15:35;;;;;;;;;;;;;;;;;;5009875;28;841;-61
2021/03/12 06:18:13;;;;;;;;;;;;;;;;;;5009901;28;1055;-61
2021/03/12 06:20:38;;;;;;;;;;;;;;;;;;5012290;28;1172;-61
2021/03/12 06:23:03;;;;;;;;;;;;;;;;;;5016785;28;1176;-61
2021/03/12 06:25:32;;;;;;;;;;;;;;;;;;5018880;28;1223;-61
2021/03/12 06:28:13;;;;;;;;;;;;;;;;;;5023390;28;1204;-61
2021/03/12 06:30:38;;;;;;;;;;;;;;;;;;5029296;28;1886;-61
2021/03/12 06:33:03;;;;;;;;;;;;;;;;;;5029702;28;808;-61
2021/03/12 06:35:34;;;;;;;;;;;;;;;;;;5029874;28;844;-61
2021/03/12 06:38:05;;;;;;;;;;;;;;;;;;5029430;28;827;-60
2021/03/12 06:40:30;;;;;;;;;;;;;;;;;;5029422;28;915;-61
2021/03/12 06:43:15;;;;;;;;;;;;;;;;;;5025975;28;1247;-61
2021/03/12 06:45:40;;;;;;;;;;;;;;;;;;5012422;28;1305;-61
2021/03/12 06:48:29;;;;;;;;;;;;;;;;;;5011620;28;1235;-60
2021/03/12 06:50:56;;;;;;;;;;;;;;;;;;5010962;28;1753;-60
2021/03/12 06:53:22;;;;;;;;;;;;;;;;;;5015167;28;1020;-61
2021/03/12 06:55:48;;;;;;;;;;;;;;;;;;5028733;28;851;-61
2021/03/12 06:58:13;;;;;;;;;;;;;;;;;;5029765;28;815;-61
2021/03/12 07:00:38;;;;;;;;;;;;;;;;;;5027872;28;990;-61
2021/03/12 07:03:22;;;;;;;;;;;;;;;;;;5027592;28;879;-61
2021/03/12 07:06:03;;;;;;;;;;;;;;;;;;5019114;28;1257;-61
2021/03/12 07:08:38;;;;;;;;;;;;;;;;;;5014535;28;1965;-61
2021/03/12 07:11:17;;;;;;;;;;;;;;;;;;5025953;28;1253;-61
2021/03/12 07:13:43;;;;;;;;;;;;;;;;;;5012930;28;1095;-61
2021/03/12 07:16:08;;;;;;;;;;;;;;;;;;5007767;28;874;-61
2021/03/12 07:18:34;;;;;;;;;;;;;;;;;;5008462;28;1064;-61
2021/03/12 07:21:00;;;;;;;;;;;;;;;;;;5007453;28;815;-61
2021/03/12 07:23:27;;;;;;;;;;;;;;;;;;5019413;28;1112;-61
2021/03/12 07:25:53;;;;;;;;;;;;;;;;;;5020316;28;1061;-61
2021/03/12 07:28:19;;;;;;;;;;;;;;;;;;5025149;28;1238;-61
2021/03/12 07:30:45;;;;;;;;;;;;;;;;;;5014167;28;1890;-61
2021/03/12 07:33:12;;;;;;;;;;;;;;;;;;4993452;28;1426;-60
2021/03/12 07:35:38;;;;;;;;;;;;;;;;;;5017386;28;1693;-60
2021/03/12 07:38:07;;;;;;;;;;;;;;;;;;5015975;28;1461;-60
2021/03/12 07:40:32;;;;;;;;;;;;;;;;;;5009980;28;1249;-60
2021/03/12 07:42:58;;;;;;;;;;;;;;;;;;5023271;28;1237;-60
2021/03/12 07:45:24;;;;;;;;;;;;;;;;;;5026161;28;1070;-60
2021/03/12 07:47:50;;;;;;;;;;;;;;;;;;5013712;28;1695;-60
2021/03/12 07:50:33;;;;;;;;;;;;;;;;;;5021276;28;1965;-60
2021/03/12 07:53:00;;;;;;;;;;;;;;;;;;5014182;28;1222;-60
2021/03/12 07:55:46;;;;;;;;;;;;;;;;;;5010088;28;1711;-60
2021/03/12 08:00:57;;;;;;;;;;;;;;;;;;5104019;27;1843;-60
2021/03/12 08:03:29;;;;;;;;;;;;;;;;;;5100370;28;1508;-61
2021/03/12 08:05:55;;;;;;;;;;;;;;;;;;5092844;28;1155;-60
2021/03/12 08:08:30;;;;;;;;;;;;;;;;;;5100528;28;1235;-60
2021/03/12 08:11:14;;;;;;;;;;;;;;;;;;5104009;28;935;-60
2021/03/12 08:13:41;;;;;;;;;;;;;;;;;;5103844;28;898;-60
2021/03/12 08:16:07;;;;;;;;;;;;;;;;;;5103613;28;830;-61
2021/03/12 08:18:32;;;;;;;;;;;;;;;;;;5098324;28;2001;-60
2021/03/12 08:20:57;;;;;;;;;;;;;;;;;;5102869;28;1042;-60
2021/03/12 08:23:41;;;;;;;;;;;;;;;;;;5102398;28;1229;-59
2021/03/12 08:26:06;;;;;;;;;;;;;;;;;;5087571;28;1055;-59
2021/03/12 08:28:32;;;;;;;;;;;;;;;;;;5080851;28;1755;-60
2021/03/12 08:30:59;;;;;;;;;;;;;;;;;;5083510;28;1678;-60
2021/03/12 08:33:24;;;;;;;;;;;;;;;;;;5073534;28;1659;-60
2021/03/12 08:35:50;;;;;;;;;;;;;;;;;;5086944;28;1089;-60
2021/03/12 08:38:25;;;;;;;;;;;;;;;;;;5093815;28;1469;-60
2021/03/12 08:41:14;;;;;;;;;;;;;;;;;;5093002;28;1909;-60
2021/03/12 08:43:44;;;;;;;;;;;;;;;;;;5090747;27;1229;-60
2021/03/12 08:46:17;;;;;;;;;;;;;;;;;;5094144;28;1741;-60
2021/03/12 08:48:43;;;;;;;;;;;;;;;;;;5081956;28;1549;-59
2021/03/12 08:51:13;;;;;;;;;;;;;;;;;;5077361;28;984;-60
2021/03/12 08:53:40;;;;;;;;;;;;;;;;;;5080294;28;1107;-59
2021/03/12 08:56:07;;;;;;;;;;;;;;;;;;5103240;28;980;-60
2021/03/12 08:58:33;;;;;;;;;;;;;;;;;;5102825;28;1930;-59
2021/03/12 09:01:08;;;;;;;;;;;;;;;;;;5102655;28;811;-60
2021/03/12 09:03:37;;;;;;;;;;;;;;;;;;5089510;28;1781;-60
2021/03/12 09:06:11;;;;;;;;;;;;;;;;;;5080385;28;842;-60
2021/03/12 09:08:38;;;;;;;;;;;;;;;;;;5080714;28;843;-60
2021/03/12 09:11:05;;;;;;;;;;;;;;;;;;5074761;28;846;-60
2021/03/12 09:13:35;;;;;;;;;;;;;;;;;;5068763;28;847;-59
2021/03/12 09:16:02;;;;;;;;;;;;;;;;;;5068931;28;918;-59
2021/03/12 09:18:27;;;;;;;;;;;;;;;;;;5050499;28;1480;-60
2021/03/12 09:20:54;;;;;;;;;;;;;;;;;;5048816;28;1902;-60
2021/03/12 09:23:32;;;;;;;;;;;;;;;;;;5048974;28;838;-60
2021/03/12 09:25:58;;;;;;;;;;;;;;;;;;5048782;28;926;-59
2021/03/12 09:28:27;;;;;;;;;;;;;;;;;;5048685;28;819;-60
2021/03/12 09:30:53;;;;;;;;;;;;;;;;;;5049114;28;799;-60
2021/03/12 09:33:38;;;;;;;;;;;;;;;;;;5048493;28;807;-60
2021/03/12 09:36:05;;;;;;;;;;;;;;;;;;5047934;28;953;-60
2021/03/12 09:38:35;;;;;;;;;;;;;;;;;;5066328;28;1867;-60
2021/03/12 09:41:10;;;;;;;;;;;;;;;;;;5068126;28;906;-60
2021/03/12 09:43:35;;;;;;;;;;;;;;;;;;5068435;28;690;-60
2021/03/12 09:46:01;;;;;;;;;;;;;;;;;;5068543;28;846;-60
2021/03/12 09:48:30;;;;;;;;;;;;;;;;;;5058236;28;1859;-60
2021/03/12 09:50:55;;;;;;;;;;;;;;;;;;5069614;28;1028;-60
2021/03/12 09:53:21;;;;;;;;;;;;;;;;;;5072051;28;1399;-60
2021/03/12 09:55:46;;;;;;;;;;;;;;;;;;5079974;28;1048;-60
2021/03/12 09:58:13;;;;;;;;;;;;;;;;;;5073848;28;1147;-60
2021/03/12 10:00:38;;;;;;;;;;;;;;;;;;5067602;28;1977;-60
2021/03/12 10:03:04;;;;;;;;;;;;;;;;;;5067364;28;1258;-60
2021/03/12 10:05:30;;;;;;;;;;;;;;;;;;5067303;28;1418;-60
2021/03/12 10:08:00;;;;;;;;;;;;;;;;;;5061812;28;1207;-60
2021/03/12 10:10:27;;;;;;;;;;;;;;;;;;5067217;28;1197;-60
2021/03/12 10:12:54;;;;;;;;;;;;;;;;;;5067750;28;1190;-60
2021/03/12 10:15:23;;;;;;;;;;;;;;;;;;5065341;28;1123;-60
2021/03/12 10:17:49;;;;;;;;;;;;;;;;;;5062642;28;1625;-60
2021/03/12 10:20:23;;;;;;;;;;;;;;;;;;5046147;28;1985;-60
2021/03/12 10:22:53;;;;;;;;;;;;;;;;;;5057125;28;1218;-60
2021/03/12 10:25:18;;;;;;;;;;;;;;;;;;5057285;28;1170;-60
2021/03/12 10:27:45;;;;;;;;;;;;;;;;;;5044530;28;1245;-60
2021/03/12 10:30:16;;;;;;;;;;;;;;;;;;5061664;28;1280;-60
2021/03/12 10:32:44;;;;;;;;;;;;;;;;;;5067547;28;1078;-60
2021/03/12 10:35:17;;;;;;;;;;;;;;;;;;5066985;28;1201;-61
2021/03/12 10:37:43;;;;;;;;;;;;;;;;;;5062975;28;1504;-64
2021/03/12 10:40:08;;;;;;;;;;;;;;;;;;5066158;28;1898;-61
2021/03/12 10:42:34;;;;;;;;;;;;;;;;;;5067244;28;1076;-60
2021/03/12 10:45:01;;;;;;;;;;;;;;;;;;5066839;28;1222;-60
2021/03/12 10:47:27;;;;;;;;;;;;;;;;;;5066687;28;1167;-60
2021/03/12 10:49:53;;;;;;;;;;;;;;;;;;5055707;28;1423;-60
2021/03/12 10:52:22;;;;;;;;;;;;;;;;;;5039836;28;958;-60
2021/03/12 10:54:47;;;;;;;;;;;;;;;;;;5062985;28;1103;-60
2021/03/12 10:57:13;;;;;;;;;;;;;;;;;;5057367;28;851;-61
2021/03/12 10:59:52;;;;;;;;;;;;;;;;;;5057077;28;1898;-60
2021/03/12 11:02:17;;;;;;;;;;;;;;;;;;5066101;28;1261;-60
2021/03/12 11:04:43;;;;;;;;;;;;;;;;;;5067651;28;893;-60
2021/03/12 11:07:09;;;;;;;;;;;;;;;;;;5066440;28;867;-60
2021/03/12 11:09:35;;;;;;;;;;;;;;;;;;5060051;28;1072;-60
2021/03/12 11:12:00;;;;;;;;;;;;;;;;;;5066556;28;914;-58
2021/03/12 11:14:30;;;;;;;;;;;;;;;;;;5062995;28;1527;-59
2021/03/12 11:16:55;;;;;;;;;;;;;;;;;;5026477;28;915;-58
2021/03/12 11:19:22;;;;;;;;;;;;;;;;;;5057669;28;1977;-58
2021/03/12 11:21:47;;;;;;;;;;;;;;;;;;5065942;28;1090;-58
2021/03/12 11:24:13;;;;;;;;;;;;;;;;;;5066257;28;1269;-58
2021/03/12 11:26:39;;;;;;;;;;;;;;;;;;5065925;28;1233;-59
2021/03/12 11:29:05;;;;;;;;;;;;;;;;;;5065799;28;1233;-60
2021/03/12 11:31:30;;;;;;;;;;;;;;;;;;5059503;28;1178;-59
2021/03/12 11:33:55;;;;;;;;;;;;;;;;;;5056466;28;1167;-60
2021/03/12 11:36:21;;;;;;;;;;;;;;;;;;5047456;28;1338;-59
2021/03/12 11:38:46;;;;;;;;;;;;;;;;;;5046609;28;1965;-62
2021/03/12 11:41:11;;;;;;;;;;;;;;;;;;5047331;28;855;-59
2021/03/12 11:43:37;;;;;;;;;;;;;;;;;;5052040;28;1400;-60
2021/03/12 11:46:03;;;;;;;;;;;;;;;;;;5065366;28;1063;-60
2021/03/12 11:48:28;;;;;;;;;;;;;;;;;;5048350;28;1249;-60
2021/03/12 11:50:54;;;;;;;;;;;;;;;;;;5065770;28;1237;-60
2021/03/12 11:53:20;;;;;;;;;;;;;;;;;;5065746;28;1166;-60
2021/03/12 11:55:46;;;;;;;;;;;;;;;;;;5065317;28;1154;-60
2021/03/12 11:58:11;;;;;;;;;;;;;;;;;;5031263;28;1427;-60
2021/03/12 12:00:37;;;;;;;;;;;;;;;;;;5048621;28;1953;-59
2021/03/12 12:03:03;;;;;;;;;;;;;;;;;;5046216;28;797;-59
2021/03/12 12:05:29;;;;;;;;;;;;;;;;;;5045542;28;906;-60
2021/03/12 12:07:54;;;;;;;;;;;;;;;;;;5046317;28;886;-61
2021/03/12 12:10:20;;;;;;;;;;;;;;;;;;5049203;28;1159;-60
2021/03/12 12:12:47;;;;;;;;;;;;;;;;;;5077301;28;1261;-60
2021/03/12 12:15:16;;;;;;;;;;;;;;;;;;5076797;28;1257;-60
2021/03/12 12:17:42;;;;;;;;;;;;;;;;;;5077243;28;1237;-59
2021/03/12 12:20:08;;;;;;;;;;;;;;;;;;5075446;28;1975;-60
2021/03/12 12:22:33;;;;;;;;;;;;;;;;;;5069633;28;1265;-60
2021/03/12 12:24:59;;;;;;;;;;;;;;;;;;5066374;28;886;-60
2021/03/12 12:27:24;;;;;;;;;;;;;;;;;;5065321;28;889;-59
2021/03/12 12:29:50;;;;;;;;;;;;;;;;;;5065579;28;964;-60
2021/03/12 12:32:15;;;;;;;;;;;;;;;;;;5066733;28;870;-60
2021/03/12 12:34:40;;;;;;;;;;;;;;;;;;5065455;28;953;-60
2021/03/12 12:37:06;;;;;;;;;;;;;;;;;;5059399;28;1647;-60
2021/03/12 12:39:31;;;;;;;;;;;;;;;;;;5045852;28;1918;-60
2021/03/12 12:41:57;;;;;;;;;;;;;;;;;;5055134;28;1289;-60
2021/03/12 12:44:22;;;;;;;;;;;;;;;;;;5085002;28;1167;-60
2021/03/12 12:46:48;;;;;;;;;;;;;;;;;;5081527;28;1512;-60
2021/03/12 12:49:13;;;;;;;;;;;;;;;;;;5050114;28;939;-60
2021/03/12 12:51:39;;;;;;;;;;;;;;;;;;5049333;28;913;-60
2021/03/12 12:54:05;;;;;;;;;;;;;;;;;;5074115;28;1173;-60
2021/03/12 12:56:31;;;;;;;;;;;;;;;;;;5073916;28;1900;-60
2021/03/12 12:58:58;;;;;;;;;;;;;;;;;;5049031;28;1981;-59
2021/03/12 13:01:23;;;;;;;;;;;;;;;;;;5066198;28;839;-60
2021/03/12 13:03:48;;;;;;;;;;;;;;;;;;5068995;28;835;-60
2021/03/12 13:06:14;;;;;;;;;;;;;;;;;;5069626;28;887;-60
2021/03/12 13:08:39;;;;;;;;;;;;;;;;;;5062395;28;1107;-60
2021/03/12 13:11:05;;;;;;;;;;;;;;;;;;5048599;28;925;-60
2021/03/12 13:13:31;;;;;;;;;;;;;;;;;;5049542;28;831;-60
2021/03/12 13:15:57;;;;;;;;;;;;;;;;;;5049085;28;842;-60
2021/03/12 13:18:23;;;;;;;;;;;;;;;;;;5068328;28;808;-60
2021/03/12 13:20:53;;;;;;;;;;;;;;;;;;5068980;28;1897;-60
2021/03/12 13:23:19;;;;;;;;;;;;;;;;;;5068666;28;847;-60
2021/03/12 13:25:46;;;;;;;;;;;;;;;;;;5069629;28;877;-60
2021/03/12 13:28:11;;;;;;;;;;;;;;;;;;5101817;28;977;-60
2021/03/12 13:30:37;;;;;;;;;;;;;;;;;;5068707;28;725;-59
2021/03/12 13:33:02;;;;;;;;;;;;;;;;;;5070563;28;1119;-60
2021/03/12 13:35:27;;;;;;;;;;;;;;;;;;5077438;28;1198;-59
2021/03/12 13:37:56;;;;;;;;;;;;;;;;;;5064148;28;1807;-60
2021/03/12 13:40:22;;;;;;;;;;;;;;;;;;5067831;28;1991;-60
2021/03/12 13:42:48;;;;;;;;;;;;;;;;;;5047912;28;824;-60
2021/03/12 13:45:14;;;;;;;;;;;;;;;;;;5053098;28;1569;-60
2021/03/12 13:47:40;;;;;;;;;;;;;;;;;;5075094;28;1080;-59
2021/03/12 13:50:08;;;;;;;;;;;;;;;;;;5082365;28;1297;-59
2021/03/12 13:52:33;;;;;;;;;;;;;;;;;;5075973;28;1080;-60
2021/03/12 13:54:58;;;;;;;;;;;;;;;;;;5072594;28;1504;-60
2021/03/12 13:57:24;;;;;;;;;;;;;;;;;;5068038;28;1175;-60
2021/03/12 13:59:49;;;;;;;;;;;;;;;;;;5066189;28;1971;-60
2021/03/12 14:02:14;;;;;;;;;;;;;;;;;;5064799;28;1218;-60
2021/03/12 14:04:40;;;;;;;;;;;;;;;;;;5074149;28;1167;-60
2021/03/12 14:07:05;;;;;;;;;;;;;;;;;;5074123;28;1260;-60
2021/03/12 14:09:30;;;;;;;;;;;;;;;;;;5079099;28;1248;-60
2021/03/12 14:11:56;;;;;;;;;;;;;;;;;;5072565;28;1353;-60
2021/03/12 14:14:21;;;;;;;;;;;;;;;;;;5068642;28;1058;-60
2021/03/12 14:16:47;;;;;;;;;;;;;;;;;;5078054;28;1225;-60
2021/03/12 14:19:13;;;;;;;;;;;;;;;;;;5078007;28;1905;-60
2021/03/12 14:21:39;;;;;;;;;;;;;;;;;;5076828;28;1139;-59
2021/03/12 14:24:04;;;;;;;;;;;;;;;;;;5070192;28;1095;-59
2021/03/12 14:26:30;;;;;;;;;;;;;;;;;;5077450;28;1218;-59
2021/03/12 14:28:55;;;;;;;;;;;;;;;;;;5067246;28;1027;-60
2021/03/12 14:31:21;;;;;;;;;;;;;;;;;;5073221;28;1344;-60
2021/03/12 14:33:46;;;;;;;;;;;;;;;;;;5063267;28;1421;-60
2021/03/12 14:36:12;;;;;;;;;;;;;;;;;;5050789;28;1036;-59
2021/03/12 14:38:37;;;;;;;;;;;;;;;;;;5047930;28;2424;-59
2021/03/12 14:41:03;;;;;;;;;;;;;;;;;;5053084;28;1939;-60
2021/03/12 14:43:28;;;;;;;;;;;;;;;;;;5050046;28;1128;-59
2021/03/12 14:45:54;;;;;;;;;;;;;;;;;;5057383;28;1747;-60
2021/03/12 14:48:20;;;;;;;;;;;;;;;;;;5047174;28;823;-60
2021/03/12 14:50:46;;;;;;;;;;;;;;;;;;5048146;28;856;-59
2021/03/12 14:53:12;;;;;;;;;;;;;;;;;;5057630;28;1181;-60
2021/03/12 14:55:37;;;;;;;;;;;;;;;;;;5087007;28;855;-59
2021/03/12 14:58:04;;;;;;;;;;;;;;;;;;5086747;28;898;-60
2021/03/12 15:00:30;;;;;;;;;;;;;;;;;;5086067;28;1894;-59
2021/03/12 15:02:55;;;;;;;;;;;;;;;;;;5086110;28;913;-60
2021/03/12 15:05:20;;;;;;;;;;;;;;;;;;5086768;28;843;-60
2021/03/12 15:07:46;;;;;;;;;;;;;;;;;;5081645;28;913;-60
2021/03/12 15:10:12;;;;;;;;;;;;;;;;;;5047000;28;831;-59
2021/03/12 15:12:37;;;;;;;;;;;;;;;;;;5046788;28;952;-59
2021/03/12 15:15:04;;;;;;;;;;;;;;;;;;5046079;28;962;-59
2021/03/12 15:17:29;;;;;;;;;;;;;;;;;;5046750;28;906;-59
2021/03/12 15:19:54;;;;;;;;;;;;;;;;;;5046525;28;1930;-60
2021/03/12 15:22:20;;;;;;;;;;;;;;;;;;5046965;28;886;-60
2021/03/12 15:24:45;;;;;;;;;;;;;;;;;;5051403;28;903;-59
2021/03/12 15:27:10;;;;;;;;;;;;;;;;;;5066471;28;906;-59
2021/03/12 15:29:36;;;;;;;;;;;;;;;;;;5066779;28;815;-59
2021/03/12 15:32:01;;;;;;;;;;;;;;;;;;5066399;28;855;-59
2021/03/12 15:34:27;;;;;;;;;;;;;;;;;;5066296;28;914;-60
2021/03/12 15:36:52;;;;;;;;;;;;;;;;;;5066720;28;823;-60
2021/03/12 15:39:17;;;;;;;;;;;;;;;;;;5066368;28;1886;-60
2021/03/12 15:41:43;;;;;;;;;;;;;;;;;;5067352;28;803;-59
2021/03/12 15:44:08;;;;;;;;;;;;;;;;;;5065930;28;930;-59
2021/03/12 15:46:33;;;;;;;;;;;;;;;;;;5047442;28;1651;-59
2021/03/12 15:48:59;;;;;;;;;;;;;;;;;;5065352;28;1101;-59
2021/03/12 15:51:24;;;;;;;;;;;;;;;;;;5065939;28;823;-59
2021/03/12 15:53:50;;;;;;;;;;;;;;;;;;5076186;28;1142;-59
2021/03/12 15:56:17;;;;;;;;;;;;;;;;;;5068151;28;1053;-59
2021/03/12 15:58:42;;;;;;;;;;;;;;;;;;5046376;28;875;-59
2021/03/12 16:01:07;;;;;;;;;;;;;;;;;;5049436;28;1967;-58
2021/03/12 16:03:33;;;;;;;;;;;;;;;;;;5049197;28;879;-59
2021/03/12 16:05:59;;;;;;;;;;;;;;;;;;5048101;28;1671;-59
2021/03/12 16:08:26;;;;;;;;;;;;;;;;;;5053544;28;1774;-59
2021/03/12 16:10:52;;;;;;;;;;;;;;;;;;5064857;28;1602;-59
2021/03/12 16:13:21;;;;;;;;;;;;;;;;;;5076128;28;1075;-59
2021/03/12 16:15:46;;;;;;;;;;;;;;;;;;5071831;28;1447;-59
2021/03/12 16:18:12;;;;;;;;;;;;;;;;;;5074524;28;1215;-59
2021/03/12 16:20:37;;;;;;;;;;;;;;;;;;5078813;28;1939;-60
2021/03/12 16:23:03;;;;;;;;;;;;;;;;;;5079890;28;1378;-60
2021/03/12 16:25:29;;;;;;;;;;;;;;;;;;5079867;28;1079;-59
2021/03/12 16:27:55;;;;;;;;;;;;;;;;;;5082031;28;1226;-59
2021/03/12 16:30:21;;;;;;;;;;;;;;;;;;5080121;28;1177;-59
2021/03/12 16:32:47;;;;;;;;;;;;;;;;;;5066088;28;1553;-59
2021/03/12 16:35:13;;;;;;;;;;;;;;;;;;5078496;28;1268;-59
2021/03/12 16:37:38;;;;;;;;;;;;;;;;;;5069869;28;1140;-59
2021/03/12 16:40:03;;;;;;;;;;;;;;;;;;5075202;28;1917;-59
2021/03/12 16:42:31;;;;;;;;;;;;;;;;;;5090055;28;874;-59
2021/03/12 16:44:56;;;;;;;;;;;;;;;;;;5089764;28;901;-60
2021/03/12 16:47:21;;;;;;;;;;;;;;;;;;5089681;28;838;-60
2021/03/12 16:49:47;;;;;;;;;;;;;;;;;;5084152;28;1190;-60
2021/03/12 16:52:14;;;;;;;;;;;;;;;;;;5074858;28;1198;-60
2021/03/12 16:54:39;;;;;;;;;;;;;;;;;;5086212;28;1078;-60
2021/03/12 16:57:05;;;;;;;;;;;;;;;;;;5089682;28;907;-60
2021/03/12 16:59:30;;;;;;;;;;;;;;;;;;5089529;28;1962;-59
2021/03/12 17:01:57;;;;;;;;;;;;;;;;;;5068942;28;1426;-59
2021/03/12 17:04:22;;;;;;;;;;;;;;;;;;5054203;28;905;-60
2021/03/12 17:06:48;;;;;;;;;;;;;;;;;;5068697;28;1577;-60
2021/03/12 17:09:15;;;;;;;;;;;;;;;;;;5077144;28;1135;-60
2021/03/12 17:11:43;;;;;;;;;;;;;;;;;;5071134;28;1241;-59